Terminal Aerodrome Forecast
Issued by NWS Green Bay, WI

Home | Current Version | Previous Version | Text Only | Print | Product List | Glossary Off
Versions: 1 2 3 4 5 6 7 8 9 10 11 12 13 14 15 16 17 18 19 20 21 22 23 24 25 26 27 28 29 30 31 32 33 34 35 36 37 38

000
FTUS43 KGRB 282227 AAC
TAFGRB
TAF AMD
KGRB 282227Z 2822/2918 18011G18KT P6SM SCT009 BKN040 WS020/24045KT
      TEMPO 2822/2824 BKN009
     FM290000 18012G20KT P6SM SCT018 BKN040 WS020/23040KT
      TEMPO 2900/2903 2SM TSRA BKN018CB
     FM290600 23011KT P6SM BKN045 WS020/27040KT
     FM291400 26013G19KT P6SM SCT045=

USA.gov is the U.S. government's official web portal to all federal, state and local government web resources and services.